Terminal Aerodrome Forecast
Issued by NWS Albany, NY

Home | Current Version | Previous Version | Text Only | Print | Product List | Glossary On
Versions: 1 2 3 4 5 6 7 8 9 10 11 12 13 14 15 16 17 18 19 20 21 22 23 24 25 26 27 28 29 30 31 32 33
000
FTUS41 KALY 231500 AAA
TAFGFL
TAF AMD
KGFL 231547Z 2316/2412 36010KT 6SM -RA FEW015 OVC025
      TEMPO 2316/2318 2SM RA BKN015 OVC025
     FM232200 36010G15KT 6SM -RA BR SCT015 OVC025
     FM241000 35010G15KT P6SM -RA OVC035=

USA.gov is the U.S. government's official web portal to all federal, state and local government web resources and services.